< < Back
Terminal Aerodrome Forecast


Current Version              Previous Versions:   1  2  3  4  5  6  7  8  9  

Terminal Aerodrome Forecast

618
FTUS42 KCHS 262327
TAFSAV
TAF
KSAV 262327Z 2700/2724 VRB03KT P6SM BKN150
     FM270900 35003KT P6SM SCT005 SCT025
      TEMPO 2710/2713 4SM BR SCT004 BKN015
     FM271400 34005KT P6SM SCT015 BKN040
     FM272100 13006KT P6SM SCT040 BKN080=

Latest METAR

837
SAUS80 KWBC 270200 RRB
MTRSAV
METAR KSAV 270153Z 06005KT 10SM FEW023 FEW070 BKN140 OVC180 24/21 A3001
RMK AO2 SLP160 T02440211 PNO $


USA.gov is the U.S. government's official web portal to all federal, state and local government web resources and services.